Melita — V7VX8 — position and weather

sailwx.info

Track history (hours):
 
Tides and Currents Weather Stations Pressure Air Temp Water Temp Dewpoint Dewpoint Depression Visibility Wind Speed Wind Dir Waves Ship Positions

Melita

Last reported at 2017-Apr-30 23:55 UTC. Time now 2017-May-25 01:05 UTC.
Position N 16°22' W 062°25'.
Warning: this ship's position is 24 days out of date.

Length 274 m; draft 9 m.

Type: Tanker. MMSI: 538004237.

Date/timePositionNaut miles runAvg speedWind from/ knotsBaromVisibWave heightAir tempDewpointWater temp
2017-Apr-30 23:55N 16°22' W 062°25'512.5
2017-Apr-30 23:30N 16°24' W 062°20'612.5
2017-Apr-30 23:00N 16°27' W 062°14'612.9
2017-Apr-30 22:30N 16°30' W 062°09'612.9
2017-Apr-30 22:00N 16°34' W 062°03'713.0
2017-Apr-30 21:30N 16°36' W 061°57'612.8
2017-Apr-30 21:00N 16°39' W 061°51'613.0
2017-Apr-30 20:30N 16°42' W 061°45'713.4
2017-Apr-30 20:00N 16°45' W 061°38'713.4
2017-Apr-30 19:30N 16°48' W 061°32'713.3
2017-Apr-30 19:00N 16°51' W 061°26'713.4
2017-Apr-30 18:30N 16°53' W 061°19'713.4
2017-Apr-30 18:00N 16°56' W 061°13'713.3
2017-Apr-30 17:30N 16°59' W 061°07'713.4
2017-Apr-30 17:00N 17°02' W 061°00'713.5
2017-Apr-30 16:29N 17°05' W 060°54'613.5
2017-Apr-30 16:00N 17°08' W 060°48'713.6
2017-Apr-30 15:30N 17°10' W 060°41'  
Track history (hours):
 
Tides and Currents Weather Stations Pressure Air Temp Water Temp Dewpoint Dewpoint Depression Visibility Wind Speed Wind Dir Waves Ship Positions

Melita

Last reported at 2017-Apr-30 23:55 UTC. Time now 2017-May-25 01:05 UTC.
Position N 16°22' W 062°25'.
Warning: this ship's position is 24 days out of date.

Length 274 m; draft 9 m.

Type: Tanker. MMSI: 538004237.

Date/timePositionNaut miles runAvg speedWind from/ knotsBaromVisibWave heightAir tempDewpointWater temp
2017-Apr-30 23:55N 16°22' W 062°25'512.5
2017-Apr-30 23:30N 16°24' W 062°20'612.5
2017-Apr-30 23:00N 16°27' W 062°14'612.9
2017-Apr-30 22:30N 16°30' W 062°09'612.9
2017-Apr-30 22:00N 16°34' W 062°03'713.0
2017-Apr-30 21:30N 16°36' W 061°57'612.8
2017-Apr-30 21:00N 16°39' W 061°51'613.0
2017-Apr-30 20:30N 16°42' W 061°45'713.4
2017-Apr-30 20:00N 16°45' W 061°38'713.4
2017-Apr-30 19:30N 16°48' W 061°32'713.3
2017-Apr-30 19:00N 16°51' W 061°26'713.4
2017-Apr-30 18:30N 16°53' W 061°19'713.4
2017-Apr-30 18:00N 16°56' W 061°13'713.3
2017-Apr-30 17:30N 16°59' W 061°07'713.4
2017-Apr-30 17:00N 17°02' W 061°00'713.5
2017-Apr-30 16:29N 17°05' W 060°54'613.5
2017-Apr-30 16:00N 17°08' W 060°48'713.6
2017-Apr-30 15:30N 17°10' W 060°41'  

Dump ship's entire track history